Terminal Aerodrome Forecast
Issued by NWS Tampa Bay Area, FL

Home | Current Version | Previous Version | Text Only | Print | Product List | Glossary On
Versions: 1 2 3 4 5 6 7 8 9 10 11 12 13
000
FTUS42 KTBW 231120
TAFFMY
TAF
KFMY 231120Z 2312/2412 03005KT 6SM BR SCT050 BKN200
     FM231400 07008KT P6SM FEW025 SCT200
     FM231800 06009KT P6SM SCT025 BKN050
     FM232100 07013G18KT P6SM VCSH SCT025 BKN050
     FM240200 07011KT P6SM FEW030 SCT250
     FM240800 06007KT P6SM FEW020 FEW250=

USA.gov is the U.S. government's official web portal to all federal, state and local government web resources and services.